createdAt,value
2018-04-26T00:00:30.593Z,14.20
2018-04-26T00:02:58.820Z,14.10
2018-04-26T00:05:27.046Z,14.20
2018-04-26T00:07:55.337Z,14.10
2018-04-26T00:10:23.588Z,14.30
2018-04-26T00:12:51.864Z,14.20
2018-04-26T00:15:20.099Z,14.10
2018-04-26T00:17:48.310Z,14.10
2018-04-26T00:20:16.586Z,13.90
2018-04-26T00:22:44.804Z,13.70
2018-04-26T00:25:13.038Z,13.80
2018-04-26T00:27:41.245Z,13.70
2018-04-26T00:30:09.737Z,13.80
2018-04-26T00:32:37.968Z,13.70
2018-04-26T00:35:06.280Z,13.70
2018-04-26T00:37:34.500Z,13.70
2018-04-26T00:40:04.020Z,13.60
2018-04-26T00:42:32.262Z,13.60
2018-04-26T00:45:01.258Z,13.90
2018-04-26T00:47:29.453Z,13.90
2018-04-26T00:49:58.468Z,13.90
2018-04-26T00:52:26.684Z,13.90
2018-04-26T00:54:54.905Z,13.60
2018-04-26T00:57:23.193Z,13.60
2018-04-26T00:59:51.420Z,13.70
2018-04-26T01:02:20.402Z,13.70
2018-04-26T01:04:48.736Z,13.60
2018-04-26T01:07:16.938Z,13.70
2018-04-26T01:09:45.181Z,13.70
2018-04-26T01:12:13.461Z,13.60
2018-04-26T01:14:41.685Z,13.50
2018-04-26T01:17:09.908Z,13.50
2018-04-26T01:19:38.123Z,13.40
2018-04-26T01:22:06.344Z,13.30
2018-04-26T01:24:34.564Z,13.30
2018-04-26T01:27:02.797Z,13.30
2018-04-26T01:29:31.016Z,13.40
2018-04-26T01:31:59.233Z,13.40
2018-04-26T01:34:28.218Z,13.40
2018-04-26T01:37:08.306Z,13.40
2018-04-26T01:39:36.678Z,13.50
2018-04-26T01:42:04.932Z,13.30
2018-04-26T01:44:33.932Z,13.20
2018-04-26T01:47:02.230Z,13.10
2018-04-26T01:49:30.481Z,13.30
2018-04-26T01:51:59.461Z,13.20
2018-04-26T01:54:29.384Z,13.10
2018-04-26T01:56:57.625Z,13.10
2018-04-26T01:59:27.353Z,13.00
2018-04-26T02:01:56.357Z,13.00
2018-04-26T02:04:25.360Z,13.00
2018-04-26T02:06:53.598Z,13.00
2018-04-26T02:09:21.812Z,13.20
2018-04-26T02:11:50.060Z,13.20
2018-04-26T02:14:19.056Z,13.20
2018-04-26T02:16:48.048Z,13.20
2018-04-26T02:19:17.084Z,13.10
2018-04-26T02:21:46.059Z,13.10
2018-04-26T02:24:14.342Z,13.10
2018-04-26T02:26:42.612Z,13.00
2018-04-26T02:29:11.054Z,12.90
2018-04-26T02:31:39.269Z,12.90
2018-04-26T02:34:07.501Z,12.90
2018-04-26T02:36:36.504Z,13.00
2018-04-26T02:39:05.517Z,12.90
2018-04-26T02:41:34.511Z,12.80
2018-04-26T02:44:02.743Z,12.80
2018-04-26T02:46:30.977Z,12.90
2018-04-26T02:48:59.916Z,12.80
2018-04-26T02:51:28.906Z,12.80
2018-04-26T02:53:57.129Z,12.80
2018-04-26T02:56:25.353Z,12.90
2018-04-26T02:58:53.650Z,12.80
2018-04-26T03:01:22.648Z,12.60
2018-04-26T03:03:51.612Z,12.60
2018-04-26T03:06:19.835Z,12.60
2018-04-26T03:08:48.110Z,12.60
2018-04-26T03:11:16.377Z,12.60
2018-04-26T03:13:44.859Z,12.70
2018-04-26T03:16:13.125Z,12.80
2018-04-26T03:18:43.004Z,12.80
2018-04-26T03:21:11.220Z,12.70
2018-04-26T03:23:40.213Z,12.60
2018-04-26T03:26:09.202Z,12.60
2018-04-26T03:28:38.176Z,12.60
2018-04-26T03:31:07.288Z,12.50
2018-04-26T03:33:36.161Z,12.50
2018-04-26T03:36:05.929Z,12.40
2018-04-26T03:38:34.174Z,12.40
2018-04-26T03:41:03.157Z,12.40
2018-04-26T03:43:31.399Z,12.40
2018-04-26T03:45:59.604Z,12.40
2018-04-26T03:48:27.845Z,12.40
2018-04-26T03:50:56.160Z,12.40
2018-04-26T03:53:25.149Z,12.30
2018-04-26T03:55:53.361Z,12.30
2018-04-26T03:58:21.585Z,12.20
2018-04-26T04:01:02.512Z,12.20
2018-04-26T04:03:42.716Z,12.20
2018-04-26T04:06:15.224Z,12.10
2018-04-26T04:08:44.193Z,12.10
2018-04-26T04:11:13.302Z,12.20
2018-04-26T04:13:42.271Z,12.00
2018-04-26T04:16:11.252Z,12.00
2018-04-26T04:18:39.478Z,12.00
2018-04-26T04:21:07.703Z,12.10
2018-04-26T04:23:36.718Z,12.00
2018-04-26T04:26:04.911Z,12.00
2018-04-26T04:28:33.132Z,12.00
2018-04-26T04:31:01.346Z,12.00
2018-04-26T04:33:29.610Z,12.00
2018-04-26T04:35:58.600Z,11.80
2018-04-26T04:38:27.584Z,11.90
2018-04-26T04:40:56.563Z,12.00
2018-04-26T04:43:25.200Z,12.00
2018-04-26T04:45:53.424Z,12.00
2018-04-26T04:48:21.654Z,12.00
2018-04-26T04:50:49.871Z,12.10
2018-04-26T04:53:18.097Z,12.00
2018-04-26T04:55:46.313Z,12.00
2018-04-26T04:58:14.620Z,12.00
2018-04-26T05:00:42.836Z,12.00
2018-04-26T05:03:11.551Z,11.90
2018-04-26T05:05:39.745Z,11.90
2018-04-26T05:08:08.736Z,12.00
2018-04-26T05:10:37.752Z,12.20
2018-04-26T05:13:05.993Z,12.20
2018-04-26T05:15:35.104Z,12.00
2018-04-26T05:18:04.144Z,12.00
2018-04-26T05:20:32.363Z,12.00
2018-04-26T05:23:01.346Z,11.90
2018-04-26T05:25:30.356Z,11.90
2018-04-26T05:27:59.388Z,11.90
2018-04-26T05:30:27.605Z,11.90
2018-04-26T05:32:56.588Z,11.80
2018-04-26T05:35:24.823Z,11.80
2018-04-26T05:37:53.027Z,11.80
2018-04-26T05:40:21.242Z,11.90
2018-04-26T05:42:50.218Z,11.90
2018-04-26T05:45:19.215Z,12.00
2018-04-26T05:47:48.204Z,11.70
2018-04-26T05:50:16.423Z,11.60
2018-04-26T05:52:44.681Z,11.70
2018-04-26T05:55:12.948Z,11.80
2018-04-26T05:57:41.219Z,11.90
2018-04-26T06:00:10.585Z,12.20
2018-04-26T06:02:38.797Z,12.20
2018-04-26T06:05:07.022Z,12.20
2018-04-26T06:07:35.246Z,12.40
2018-04-26T06:10:04.537Z,12.40
2018-04-26T06:12:33.519Z,12.30
2018-04-26T06:15:01.742Z,12.30
2018-04-26T06:17:29.990Z,12.70
2018-04-26T06:19:59.107Z,12.40
2018-04-26T06:22:27.301Z,12.40
2018-04-26T06:24:55.537Z,12.50
2018-04-26T06:27:23.762Z,12.90
2018-04-26T06:29:51.989Z,13.10
2018-04-26T06:32:20.196Z,13.00
2018-04-26T06:34:48.431Z,12.70
2018-04-26T06:37:17.412Z,12.80
2018-04-26T06:39:46.405Z,12.80
2018-04-26T06:42:15.409Z,13.00
2018-04-26T06:44:44.367Z,12.90
2018-04-26T06:47:12.568Z,12.90
2018-04-26T06:49:41.564Z,13.20
2018-04-26T06:52:10.563Z,13.40
2018-04-26T06:54:38.842Z,13.40
2018-04-26T06:57:07.054Z,13.30
2018-04-26T06:59:35.267Z,13.00
2018-04-26T07:02:04.264Z,12.90
2018-04-26T07:04:33.247Z,13.00
2018-04-26T07:07:01.477Z,13.00
2018-04-26T07:09:29.701Z,13.10
2018-04-26T07:11:58.746Z,13.30
2018-04-26T07:14:27.692Z,13.30
2018-04-26T07:16:56.685Z,13.60
2018-04-26T07:19:25.649Z,13.40
2018-04-26T07:21:54.081Z,13.30
2018-04-26T07:24:22.201Z,13.90
2018-04-26T07:26:50.425Z,14.50
2018-04-26T07:29:18.699Z,13.50
2018-04-26T07:31:47.728Z,13.50
2018-04-26T07:34:15.916Z,13.40
2018-04-26T07:36:44.132Z,13.50
2018-04-26T07:39:12.416Z,13.60
2018-04-26T07:41:40.637Z,13.10
2018-04-26T07:44:08.853Z,13.10
2018-04-26T07:46:37.090Z,13.20
2018-04-26T07:49:05.295Z,13.20
2018-04-26T07:51:34.315Z,13.80
2018-04-26T07:54:02.577Z,13.80
2018-04-26T07:56:30.843Z,13.90
2018-04-26T07:58:59.897Z,13.70
2018-04-26T08:01:28.952Z,13.60
2018-04-26T08:03:57.963Z,14.20
2018-04-26T08:06:26.214Z,14.20
2018-04-26T08:08:54.420Z,13.70
2018-04-26T08:11:22.722Z,14.10
2018-04-26T08:13:50.892Z,14.40
2018-04-26T08:16:20.637Z,13.30
2018-04-26T08:18:48.852Z,13.30
2018-04-26T08:21:17.096Z,13.10
2018-04-26T08:23:45.311Z,13.20
2018-04-26T08:26:13.563Z,13.30
2018-04-26T08:28:41.773Z,13.30
2018-04-26T08:31:10.001Z,13.40
2018-04-26T08:33:38.210Z,13.40
2018-04-26T08:36:06.534Z,13.30
2018-04-26T08:38:34.769Z,13.30
2018-04-26T08:41:03.298Z,13.30
2018-04-26T08:43:31.503Z,13.10
2018-04-26T08:45:59.706Z,13.00
2018-04-26T08:48:28.693Z,13.00
2018-04-26T08:50:56.937Z,13.00
2018-04-26T08:53:25.512Z,13.30
2018-04-26T08:55:53.790Z,13.30
2018-04-26T08:58:21.943Z,13.50
2018-04-26T09:00:50.215Z,13.40
2018-04-26T09:03:18.495Z,13.70
2018-04-26T09:05:46.713Z,14.10
2018-04-26T09:08:15.046Z,14.20
2018-04-26T09:10:43.265Z,14.10
2018-04-26T09:13:11.488Z,14.20
2018-04-26T09:15:39.726Z,13.90
2018-04-26T09:18:07.938Z,14.60
2018-04-26T09:20:36.897Z,14.60
2018-04-26T09:23:07.130Z,14.60
2018-04-26T09:25:36.156Z,14.90
2018-04-26T09:28:04.385Z,14.80
2018-04-26T09:30:32.601Z,14.70
2018-04-26T09:33:00.829Z,15.10
2018-04-26T09:35:29.026Z,14.90
2018-04-26T09:37:57.254Z,14.70
2018-04-26T09:40:25.496Z,14.60
2018-04-26T09:42:53.774Z,14.20
2018-04-26T09:45:21.968Z,14.10
2018-04-26T09:47:50.188Z,14.00
2018-04-26T09:50:18.480Z,13.90
2018-04-26T09:52:47.474Z,14.10
2018-04-26T09:55:16.453Z,14.50
2018-04-26T09:57:44.672Z,14.50
2018-04-26T10:00:13.105Z,14.30
2018-04-26T10:02:46.069Z,14.30
2018-04-26T10:05:14.276Z,14.30
2018-04-26T10:07:43.265Z,14.90
2018-04-26T10:10:12.530Z,14.80
2018-04-26T10:12:40.741Z,14.70
2018-04-26T10:15:09.777Z,14.80
2018-04-26T10:17:37.953Z,14.70
2018-04-26T10:20:06.357Z,14.90
2018-04-26T10:22:34.870Z,14.70
2018-04-26T10:25:03.913Z,15.40
2018-04-26T10:27:32.137Z,15.40
2018-04-26T10:30:01.272Z,14.80
2018-04-26T10:32:29.516Z,14.80
2018-04-26T10:34:57.721Z,15.10
2018-04-26T10:37:25.945Z,15.10
2018-04-26T10:39:54.219Z,15.10
2018-04-26T10:42:22.524Z,15.10
2018-04-26T10:44:50.742Z,14.80
2018-04-26T10:47:18.951Z,15.20
2018-04-26T10:49:47.949Z,15.20
2018-04-26T10:52:16.950Z,15.40
2018-04-26T10:54:45.940Z,15.40
2018-04-26T10:57:14.925Z,15.30
2018-04-26T10:59:43.917Z,15.40
2018-04-26T11:02:12.925Z,15.70
2018-04-26T11:04:41.145Z,15.70
2018-04-26T11:07:09.352Z,15.70
2018-04-26T11:09:38.337Z,15.30
2018-04-26T11:12:06.651Z,15.30
2018-04-26T11:14:34.911Z,15.40
2018-04-26T11:17:03.196Z,15.70
2018-04-26T11:19:31.418Z,16.10
2018-04-26T11:21:59.644Z,16.10
2018-04-26T11:24:28.012Z,15.80
2018-04-26T11:26:56.125Z,15.50
2018-04-26T11:29:24.433Z,15.50
2018-04-26T11:31:53.321Z,15.30
2018-04-26T11:34:22.309Z,15.30
2018-04-26T11:36:52.024Z,15.10
2018-04-26T11:39:20.240Z,15.10
2018-04-26T11:41:48.503Z,15.10
2018-04-26T11:44:17.488Z,15.40
2018-04-26T11:46:46.486Z,15.70
2018-04-26T11:49:15.469Z,15.30
2018-04-26T11:51:44.481Z,15.20
2018-04-26T11:54:12.699Z,15.20
2018-04-26T11:56:40.904Z,15.40
2018-04-26T11:59:09.197Z,15.30
2018-04-26T12:01:38.193Z,15.50
2018-04-26T12:04:07.348Z,15.30
2018-04-26T12:06:35.552Z,15.30
2018-04-26T12:09:04.560Z,15.40
2018-04-26T12:11:32.759Z,15.40
2018-04-26T12:14:00.996Z,15.50
2018-04-26T12:16:29.985Z,15.50
2018-04-26T12:18:58.966Z,15.60
2018-04-26T12:21:27.183Z,15.50
2018-04-26T12:23:55.466Z,15.40
2018-04-26T12:26:23.616Z,15.50
2018-04-26T12:28:51.885Z,15.80
2018-04-26T12:31:20.880Z,16.30
2018-04-26T12:33:49.865Z,16.00
2018-04-26T12:36:18.862Z,15.80
2018-04-26T12:38:47.836Z,15.90
2018-04-26T12:41:16.828Z,15.80
2018-04-26T12:43:45.038Z,15.80
2018-04-26T12:46:13.338Z,15.90
2018-04-26T12:48:41.599Z,15.60
2018-04-26T12:51:09.848Z,15.60
2018-04-26T12:53:38.823Z,15.60
2018-04-26T12:56:07.044Z,15.60
2018-04-26T12:58:35.262Z,15.60
2018-04-26T13:01:04.370Z,15.50
2018-04-26T13:03:33.345Z,15.90
2018-04-26T13:06:01.573Z,15.80
2018-04-26T13:08:29.769Z,16.00
2018-04-26T13:10:57.998Z,16.10
2018-04-26T13:13:26.963Z,16.10
2018-04-26T13:15:55.266Z,16.10
2018-04-26T13:18:24.276Z,16.30
2018-04-26T13:20:52.504Z,16.30
2018-04-26T13:23:20.819Z,16.10
2018-04-26T13:25:49.708Z,16.20
2018-04-26T13:28:18.688Z,16.70
2018-04-26T13:30:47.686Z,16.30
2018-04-26T13:33:16.673Z,16.20
2018-04-26T13:35:45.672Z,16.40
2018-04-26T13:38:14.645Z,16.70
2018-04-26T13:40:42.945Z,16.60
2018-04-26T13:43:12.082Z,17.00
2018-04-26T13:45:40.302Z,17.00
2018-04-26T13:48:09.269Z,17.20
2018-04-26T13:50:37.499Z,17.20
2018-04-26T13:53:05.700Z,17.10
2018-04-26T13:55:33.919Z,16.70
2018-04-26T13:58:02.885Z,16.60
2018-04-26T14:00:31.112Z,16.50
2018-04-26T14:02:59.316Z,16.70
2018-04-26T14:05:27.631Z,16.90
2018-04-26T14:07:55.880Z,17.20
2018-04-26T14:10:24.193Z,17.10
2018-04-26T14:12:52.408Z,17.10
2018-04-26T14:15:20.657Z,16.90
2018-04-26T14:17:48.872Z,16.60
2018-04-26T14:20:17.100Z,16.60
2018-04-26T14:22:45.321Z,16.70
2018-04-26T14:25:13.525Z,16.80
2018-04-26T14:27:42.516Z,17.70
2018-04-26T14:30:11.638Z,18.10
2018-04-26T14:32:39.862Z,18.10
2018-04-26T14:35:08.073Z,17.70
2018-04-26T14:37:36.464Z,17.20
2018-04-26T14:40:04.819Z,17.30
2018-04-26T14:42:33.805Z,18.50
2018-04-26T14:45:02.797Z,21.90
2018-04-26T14:47:31.844Z,19.30
2018-04-26T14:50:00.060Z,19.30
2018-04-26T14:52:28.296Z,18.30
2018-04-26T14:54:56.504Z,17.50
2018-04-26T14:57:25.528Z,20.00
2018-04-26T14:59:53.736Z,20.00
2018-04-26T15:02:21.948Z,21.30
2018-04-26T15:04:50.975Z,23.20
2018-04-26T15:07:19.246Z,23.10
2018-04-26T15:09:47.523Z,27.20
2018-04-26T15:12:16.517Z,23.10
2018-04-26T15:14:44.758Z,23.00
2018-04-26T15:17:12.971Z,22.80
2018-04-26T15:19:41.243Z,26.10
2018-04-26T15:22:10.139Z,25.20
2018-04-26T15:24:38.331Z,21.80
2018-04-26T15:27:06.585Z,19.70
2018-04-26T15:29:34.874Z,19.40
2018-04-26T15:32:03.882Z,18.30
2018-04-26T15:34:32.220Z,18.30
2018-04-26T15:37:00.511Z,18.20
2018-04-26T15:39:28.986Z,18.00
2018-04-26T15:41:57.253Z,18.00
2018-04-26T15:44:25.705Z,17.90
2018-04-26T15:46:54.009Z,17.90
2018-04-26T15:49:22.293Z,17.90
2018-04-26T15:51:50.668Z,17.90
2018-04-26T15:54:30.831Z,17.80
2018-04-26T15:57:19.795Z,17.40
2018-04-26T16:00:00.011Z,17.30
2018-04-26T16:02:57.903Z,17.40
2018-04-26T16:05:38.048Z,17.50
2018-04-26T16:08:24.752Z,17.20
2018-04-26T16:11:11.355Z,17.40
2018-04-26T16:13:57.944Z,17.30
2018-04-26T16:20:03.912Z,17.30
2018-04-26T16:26:00.899Z,17.30
2018-04-26T16:28:47.767Z,17.30
2018-04-26T16:31:33.716Z,17.30
2018-04-26T16:37:20.759Z,17.50
2018-04-26T16:39:49.770Z,17.10
2018-04-26T16:42:18.021Z,17.10
2018-04-26T16:44:47.000Z,16.90
2018-04-26T16:47:16.021Z,16.90
2018-04-26T16:49:44.297Z,16.80
2018-04-26T16:52:12.503Z,16.70
2018-04-26T16:54:40.742Z,16.70
2018-04-26T16:57:09.703Z,16.60
2018-04-26T16:59:37.944Z,16.60
2018-04-26T17:02:06.241Z,16.50
2018-04-26T17:04:36.092Z,16.40
2018-04-26T17:07:05.052Z,16.50
2018-04-26T17:09:33.968Z,16.40
2018-04-26T17:12:02.941Z,16.20
2018-04-26T17:14:32.003Z,16.00
2018-04-26T17:17:00.258Z,16.00
2018-04-26T17:19:28.400Z,16.20
2018-04-26T17:21:56.622Z,16.20
2018-04-26T17:24:24.851Z,16.10
2018-04-26T17:26:53.825Z,16.10
2018-04-26T17:29:22.813Z,16.20
2018-04-26T17:31:51.098Z,16.20
2018-04-26T17:34:20.078Z,16.20
2018-04-26T17:36:48.377Z,16.20
2018-04-26T17:39:17.375Z,16.10
2018-04-26T17:41:46.350Z,16.00
2018-04-26T17:44:15.371Z,16.00
2018-04-26T17:46:44.341Z,16.10
2018-04-26T17:49:13.324Z,16.00
2018-04-26T17:51:42.301Z,16.10
2018-04-26T17:54:10.524Z,16.00
2018-04-26T17:56:38.746Z,16.00
2018-04-26T17:59:06.974Z,15.80
2018-04-26T18:01:35.219Z,15.80
2018-04-26T18:04:04.324Z,15.80
2018-04-26T18:06:32.472Z,15.80
2018-04-26T18:09:00.689Z,15.90
2018-04-26T18:11:28.893Z,15.80
2018-04-26T18:13:57.120Z,15.80
2018-04-26T18:16:25.406Z,15.80
2018-04-26T18:18:53.643Z,15.80
2018-04-26T18:21:21.951Z,15.80
2018-04-26T18:23:51.029Z,15.80
2018-04-26T18:26:19.316Z,15.80
2018-04-26T18:28:47.554Z,15.80
2018-04-26T18:31:15.768Z,15.60
2018-04-26T18:33:43.993Z,15.50
2018-04-26T18:36:12.269Z,15.30
2018-04-26T18:38:40.480Z,15.30
2018-04-26T18:41:09.524Z,15.30
2018-04-26T18:43:37.760Z,15.20
2018-04-26T18:46:06.742Z,15.20
2018-04-26T18:48:35.720Z,15.00
2018-04-26T18:51:04.108Z,15.00
2018-04-26T18:53:32.241Z,15.10
2018-04-26T18:56:00.491Z,15.10
2018-04-26T18:58:28.705Z,15.10
2018-04-26T19:00:56.920Z,15.10
2018-04-26T19:03:25.148Z,15.10
2018-04-26T19:05:53.375Z,15.10
2018-04-26T19:08:22.325Z,15.10
2018-04-26T19:10:51.459Z,15.10
2018-04-26T19:13:20.416Z,15.10
2018-04-26T19:15:48.704Z,15.10
2018-04-26T19:18:16.873Z,15.10
2018-04-26T19:20:45.181Z,15.00
2018-04-26T19:23:14.447Z,14.90
2018-04-26T19:25:43.449Z,14.80
2018-04-26T19:28:12.458Z,14.80
2018-04-26T19:30:41.450Z,14.70
2018-04-26T19:33:10.449Z,14.70
2018-04-26T19:35:38.720Z,14.70
2018-04-26T19:38:06.936Z,14.70
2018-04-26T19:40:35.201Z,14.70
2018-04-26T19:43:03.692Z,14.80
2018-04-26T19:45:32.060Z,14.80
2018-04-26T19:48:00.248Z,14.70
2018-04-26T19:50:28.468Z,14.70
2018-04-26T19:52:57.485Z,14.90
2018-04-26T19:55:25.757Z,14.80
2018-04-26T19:57:54.018Z,14.80
2018-04-26T20:00:23.046Z,14.70
2018-04-26T20:02:51.280Z,14.70
2018-04-26T20:05:19.512Z,14.60
2018-04-26T20:07:47.738Z,14.70
2018-04-26T20:10:16.025Z,14.70
2018-04-26T20:12:44.984Z,14.40
2018-04-26T20:15:14.033Z,14.30
2018-04-26T20:17:42.280Z,14.30
2018-04-26T20:20:10.951Z,14.20
2018-04-26T20:22:39.948Z,14.40
2018-04-26T20:25:08.956Z,14.30
2018-04-26T20:27:37.203Z,14.30
2018-04-26T20:30:05.766Z,14.30
2018-04-26T20:32:34.086Z,14.40
2018-04-26T20:35:02.300Z,14.30
2018-04-26T20:37:30.551Z,14.20
2018-04-26T20:39:58.829Z,14.20
2018-04-26T20:42:27.046Z,14.30
2018-04-26T20:44:55.306Z,14.30
2018-04-26T20:47:23.573Z,14.20
2018-04-26T20:49:51.802Z,14.20
2018-04-26T20:52:20.782Z,14.00
2018-04-26T20:54:49.803Z,14.00
2018-04-26T20:57:18.066Z,13.90
2018-04-26T20:59:48.045Z,14.00
2018-04-26T21:02:17.780Z,13.90
2018-04-26T21:04:46.750Z,13.90
2018-04-26T21:07:14.978Z,13.80
2018-04-26T21:09:43.188Z,13.80
2018-04-26T21:12:12.967Z,13.80
2018-04-26T21:14:41.210Z,13.80
2018-04-26T21:17:09.485Z,13.80
2018-04-26T21:19:37.664Z,13.80
2018-04-26T21:22:05.900Z,14.00
2018-04-26T21:24:34.485Z,13.80
2018-04-26T21:27:02.744Z,13.60
2018-04-26T21:29:30.962Z,13.70
2018-04-26T21:31:59.945Z,13.80
2018-04-26T21:34:28.159Z,13.80
2018-04-26T21:36:56.414Z,13.70
2018-04-26T21:39:24.620Z,13.80
2018-04-26T21:41:52.855Z,13.80
2018-04-26T21:44:21.951Z,13.80
2018-04-26T21:46:51.768Z,13.60
2018-04-26T21:49:19.510Z,13.60
2018-04-26T21:51:53.564Z,13.50
2018-04-26T21:54:27.508Z,13.50
2018-04-26T21:57:01.411Z,13.40
2018-04-26T21:59:35.413Z,13.50
2018-04-26T22:02:09.343Z,13.60
2018-04-26T22:04:43.185Z,13.60
2018-04-26T22:07:11.424Z,13.60
2018-04-26T22:09:39.728Z,13.50
2018-04-26T22:12:08.726Z,13.40
2018-04-26T22:14:37.692Z,13.30
2018-04-26T22:17:05.992Z,13.30
2018-04-26T22:19:34.203Z,13.20
2018-04-26T22:22:02.428Z,13.20
2018-04-26T22:24:31.402Z,13.10
2018-04-26T22:26:59.628Z,13.10
2018-04-26T22:29:27.832Z,13.20
2018-04-26T22:31:56.182Z,13.40
2018-04-26T22:34:24.404Z,13.50
2018-04-26T22:36:52.634Z,13.50
2018-04-26T22:39:20.892Z,13.70
2018-04-26T22:41:49.184Z,13.60
2018-04-26T22:44:17.438Z,13.80
2018-04-26T22:46:45.642Z,13.90
2018-04-26T22:49:13.864Z,13.80
2018-04-26T22:51:42.838Z,13.90
2018-04-26T22:54:11.161Z,13.90
2018-04-26T22:56:39.374Z,13.90
2018-04-26T22:59:07.697Z,13.90
2018-04-26T23:01:36.662Z,13.70
2018-04-26T23:04:04.969Z,13.70
2018-04-26T23:06:33.181Z,13.70
2018-04-26T23:09:01.515Z,13.80
2018-04-26T23:11:29.804Z,13.80
2018-04-26T23:13:58.089Z,13.90
2018-04-26T23:16:26.299Z,13.80
2018-04-26T23:18:54.546Z,13.80
2018-04-26T23:21:22.846Z,13.90
2018-04-26T23:23:51.090Z,13.90
2018-04-26T23:26:19.325Z,13.90
2018-04-26T23:28:47.633Z,13.80
2018-04-26T23:31:15.854Z,13.60
2018-04-26T23:33:44.082Z,13.50
2018-04-26T23:36:12.305Z,13.40
2018-04-26T23:38:40.562Z,13.40
2018-04-26T23:41:08.821Z,13.60
2018-04-26T23:43:37.081Z,13.50
2018-04-26T23:46:05.357Z,13.50
2018-04-26T23:48:33.588Z,13.50
2018-04-26T23:51:01.843Z,13.40
2018-04-26T23:53:30.075Z,13.30
2018-04-26T23:55:59.100Z,13.20
2018-04-26T23:58:27.371Z,13.20
